Search METAR Data

METAR Data for LSGS:

LSGS 241550Z 26012KT 9999 SCT070 BKN100 10/M04 Q1009